Time;durP1;ratioP1;P1;durP2;ratioP2;P2;SDS_P1;SDS_P2;PMS_P1;PMS_P2;Temp;Humidity;BMP_temperature;BMP_pressure;BME280_temperature;BME280_humidity;BME280_pressure;Samples;Min_cycle;Max_cycle;Signal;HPM_P1;HPM_P2
2021/12/15 00:00:49;;;;;;;34.57;15.87;;;;;;;;;;5074080;28;20576;-83
2021/12/15 00:03:17;;;;;;;39.87;18.37;;;;;;;;;;5077234;28;20206;-84
2021/12/15 00:05:47;;;;;;;34.83;16.63;;;;;;;;;;5072106;28;20226;-83
2021/12/15 00:08:15;;;;;;;38.73;17.63;;;;;;;;;;5067865;28;20209;-83
2021/12/15 00:10:43;;;;;;;40.90;16.93;;;;;;;;;;5066188;28;20321;-83
2021/12/15 00:13:12;;;;;;;37.10;16.63;;;;;;;;;;5066164;28;20215;-83
2021/12/15 00:15:39;;;;;;;40.63;18.37;;;;;;;;;;5067572;28;20233;-83
2021/12/15 00:18:07;;;;;;;41.47;17.90;;;;;;;;;;5067376;28;20289;-84
2021/12/15 00:20:34;;;;;;;37.77;17.10;;;;;;;;;;5071469;28;20217;-84
2021/12/15 00:23:03;;;;;;;37.03;16.63;;;;;;;;;;5069502;28;20237;-84
2021/12/15 00:25:32;;;;;;;34.77;15.87;;;;;;;;;;5075131;28;20234;-83
2021/12/15 00:28:00;;;;;;;40.00;17.80;;;;;;;;;;5075698;28;20238;-83
2021/12/15 00:30:28;;;;;;;41.87;18.37;;;;;;;;;;5061106;28;20230;-83
2021/12/15 00:36:19;;;;;;;40.07;17.17;;;;;;;;;;5036396;22;20243;-79
2021/12/15 00:38:48;;;;;;;41.57;17.37;;;;;;;;;;5021068;28;20263;-80
2021/12/15 00:41:15;;;;;;;37.53;17.53;;;;;;;;;;5018196;28;20300;-79
2021/12/15 00:43:42;;;;;;;40.90;19.20;;;;;;;;;;5023451;28;20746;-78
2021/12/15 00:46:10;;;;;;;42.77;18.33;;;;;;;;;;5017403;28;20777;-77
2021/12/15 00:48:37;;;;;;;39.47;16.67;;;;;;;;;;5018283;28;20285;-78
2021/12/15 00:51:04;;;;;;;37.83;16.90;;;;;;;;;;5018458;28;20246;-77
2021/12/15 00:53:32;;;;;;;41.20;16.27;;;;;;;;;;5019722;28;20208;-77
2021/12/15 00:56:01;;;;;;;35.80;17.73;;;;;;;;;;5017068;28;20231;-77
2021/12/15 00:58:28;;;;;;;37.17;16.07;;;;;;;;;;5017583;28;20259;-76
2021/12/15 01:00:57;;;;;;;41.57;17.60;;;;;;;;;;5016389;28;20295;-77
2021/12/15 01:03:24;;;;;;;40.87;17.63;;;;;;;;;;5019177;28;20286;-78
2021/12/15 01:05:52;;;;;;;42.60;17.37;;;;;;;;;;5017266;28;20264;-77
2021/12/15 01:08:21;;;;;;;43.37;17.93;;;;;;;;;;5019931;28;20223;-78
2021/12/15 01:11:02;;;;;;;40.10;16.90;;;;;;;;;;5016331;28;20224;-77
2021/12/15 01:21:50;;;;;;;38.43;17.23;;;;;;;;;;5014891;28;20688;-77
2021/12/15 01:24:17;;;;;;;39.20;16.87;;;;;;;;;;5016673;28;20637;-76
2021/12/15 01:26:44;;;;;;;39.30;18.23;;;;;;;;;;5017036;28;20295;-77
2021/12/15 01:29:13;;;;;;;46.37;18.60;;;;;;;;;;5013650;28;20230;-77
2021/12/15 01:31:40;;;;;;;43.00;17.97;;;;;;;;;;5018138;28;20267;-77
2021/12/15 01:34:07;;;;;;;44.20;18.00;;;;;;;;;;5013114;28;20239;-77
2021/12/15 01:36:35;;;;;;;44.67;18.63;;;;;;;;;;5014701;28;20235;-77
2021/12/15 01:39:02;;;;;;;39.03;17.67;;;;;;;;;;5019966;28;20255;-77
2021/12/15 01:41:29;;;;;;;44.87;16.87;;;;;;;;;;5022958;28;20204;-78
2021/12/15 01:46:54;;;;;;;41.70;17.10;;;;;;;;;;5020469;28;20205;-78
2021/12/15 01:49:23;;;;;;;38.63;15.70;;;;;;;;;;5018408;28;20673;-77
2021/12/15 01:51:51;;;;;;;35.97;15.20;;;;;;;;;;5020531;28;20236;-78
2021/12/15 01:54:18;;;;;;;41.90;16.73;;;;;;;;;;5019566;28;20625;-79
2021/12/15 01:56:46;;;;;;;40.67;17.33;;;;;;;;;;5020065;28;20204;-78
2021/12/15 01:59:14;;;;;;;43.47;17.37;;;;;;;;;;5019163;28;20259;-77
2021/12/15 02:01:41;;;;;;;47.10;17.27;;;;;;;;;;5021573;28;20235;-77
2021/12/15 02:04:10;;;;;;;42.00;16.20;;;;;;;;;;5018026;28;20270;-78
2021/12/15 02:06:42;;;;;;;49.07;17.70;;;;;;;;;;5019304;28;20211;-77
2021/12/15 02:09:09;;;;;;;43.83;17.10;;;;;;;;;;5017306;28;20230;-78
2021/12/15 02:11:37;;;;;;;41.63;16.97;;;;;;;;;;5021354;28;20228;-78
2021/12/15 02:14:04;;;;;;;35.97;16.03;;;;;;;;;;5019411;28;20246;-78
2021/12/15 02:16:32;;;;;;;39.40;16.70;;;;;;;;;;5021630;28;20211;-77
2021/12/15 02:18:59;;;;;;;39.17;16.80;;;;;;;;;;5021965;28;20268;-77
2021/12/15 02:21:28;;;;;;;43.90;17.23;;;;;;;;;;5018035;28;20200;-77
2021/12/15 02:23:58;;;;;;;38.63;16.87;;;;;;;;;;5019418;28;20203;-77
2021/12/15 02:26:27;;;;;;;38.40;15.20;;;;;;;;;;5016128;28;20235;-77
2021/12/15 02:28:55;;;;;;;44.40;15.53;;;;;;;;;;5021556;28;20219;-77
2021/12/15 02:31:36;;;;;;;37.33;16.10;;;;;;;;;;5022664;28;20282;-77
2021/12/15 02:34:18;;;;;;;47.00;17.13;;;;;;;;;;5019745;28;20212;-77
2021/12/15 02:37:17;;;;;;;40.60;15.67;;;;;;;;;;5019350;28;20318;-78
2021/12/15 02:39:45;;;;;;;38.77;16.00;;;;;;;;;;5020901;28;20235;-77
2021/12/15 02:42:12;;;;;;;44.07;16.57;;;;;;;;;;5016923;28;20231;-78
2021/12/15 02:44:43;;;;;;;42.90;16.97;;;;;;;;;;5018365;28;20295;-78
2021/12/15 02:47:10;;;;;;;48.20;17.37;;;;;;;;;;5018512;28;20235;-77
2021/12/15 02:49:38;;;;;;;35.20;15.93;;;;;;;;;;5016917;28;20419;-77
2021/12/15 02:52:07;;;;;;;44.80;16.27;;;;;;;;;;5022300;28;20291;-77
2021/12/15 02:54:34;;;;;;;39.70;17.10;;;;;;;;;;5018507;28;20275;-78
2021/12/15 02:57:06;;;;;;;42.53;17.17;;;;;;;;;;5019258;28;20673;-78
2021/12/15 02:59:45;;;;;;;38.40;16.93;;;;;;;;;;5020354;28;20251;-78
2021/12/15 03:02:25;;;;;;;49.03;18.33;;;;;;;;;;5020507;28;20206;-77
2021/12/15 03:05:05;;;;;;;49.67;18.50;;;;;;;;;;5018864;28;20242;-78
2021/12/15 03:07:40;;;;;;;52.17;19.57;;;;;;;;;;5013636;28;20223;-77
2021/12/15 03:15:35;;;;;;;40.80;15.90;;;;;;;;;;5015993;28;20206;-78
2021/12/15 03:18:05;;;;;;;43.10;16.10;;;;;;;;;;5018375;28;20204;-77
2021/12/15 03:20:40;;;;;;;42.37;16.17;;;;;;;;;;5017930;28;20343;-77
2021/12/15 03:23:11;;;;;;;38.13;15.93;;;;;;;;;;5014960;28;20227;-77
2021/12/15 03:25:38;;;;;;;43.50;17.27;;;;;;;;;;5016785;28;20219;-77
2021/12/15 03:33:56;;;;;;;44.30;17.23;;;;;;;;;;5017917;28;20254;-77
2021/12/15 03:36:37;;;;;;;40.63;15.53;;;;;;;;;;5017663;28;20216;-77
2021/12/15 03:39:07;;;;;;;40.53;16.77;;;;;;;;;;5015943;28;20665;-78
2021/12/15 03:41:35;;;;;;;50.87;16.53;;;;;;;;;;5014531;28;20295;-78
2021/12/15 03:44:02;;;;;;;38.33;15.10;;;;;;;;;;5015970;28;20232;-78
2021/12/15 03:46:30;;;;;;;50.87;17.43;;;;;;;;;;5018258;28;20586;-78
2021/12/15 03:48:57;;;;;;;39.60;16.10;;;;;;;;;;5016342;28;20255;-77
2021/12/15 03:51:25;;;;;;;44.83;17.57;;;;;;;;;;5018640;28;20709;-78
2021/12/15 03:53:52;;;;;;;48.03;17.17;;;;;;;;;;5017715;28;20227;-77
2021/12/15 03:56:20;;;;;;;37.83;16.13;;;;;;;;;;5023288;28;20307;-77
2021/12/15 03:58:48;;;;;;;46.37;16.63;;;;;;;;;;5019371;28;20227;-77
2021/12/15 04:01:17;;;;;;;50.67;17.20;;;;;;;;;;5016096;28;20212;-78
2021/12/15 04:03:46;;;;;;;47.03;16.73;;;;;;;;;;5020788;28;20283;-77
2021/12/15 04:06:16;;;;;;;39.93;17.20;;;;;;;;;;5017938;28;20977;-77
2021/12/15 04:08:43;;;;;;;48.83;17.07;;;;;;;;;;5016867;28;20228;-77
2021/12/15 04:11:12;;;;;;;40.50;16.10;;;;;;;;;;5022131;28;20243;-77
2021/12/15 04:13:41;;;;;;;42.20;17.33;;;;;;;;;;5020754;28;20876;-76
2021/12/15 04:16:15;;;;;;;42.80;16.57;;;;;;;;;;5023119;28;20211;-77
2021/12/15 04:18:43;;;;;;;45.43;17.37;;;;;;;;;;5021430;28;20228;-77
2021/12/15 04:21:10;;;;;;;42.80;17.30;;;;;;;;;;5022625;28;20200;-77
2021/12/15 04:23:37;;;;;;;44.53;17.57;;;;;;;;;;5020668;28;20845;-77
2021/12/15 04:26:04;;;;;;;42.50;16.53;;;;;;;;;;5021987;28;20201;-78
2021/12/15 04:28:34;;;;;;;51.17;17.27;;;;;;;;;;5023748;28;20251;-77
2021/12/15 04:31:05;;;;;;;41.20;16.67;;;;;;;;;;5021808;28;20214;-78
2021/12/15 04:33:35;;;;;;;45.00;17.63;;;;;;;;;;5019072;28;20318;-77
2021/12/15 04:36:03;;;;;;;43.63;16.50;;;;;;;;;;5023389;28;20250;-78
2021/12/15 04:38:31;;;;;;;41.47;17.70;;;;;;;;;;5022727;28;20509;-78
2021/12/15 04:41:00;;;;;;;39.47;17.37;;;;;;;;;;5018320;28;20292;-77
2021/12/15 04:43:33;;;;;;;41.73;17.67;;;;;;;;;;5021751;28;20274;-78
2021/12/15 04:46:00;;;;;;;47.30;18.93;;;;;;;;;;5015348;28;20196;-78
2021/12/15 04:48:29;;;;;;;39.07;16.17;;;;;;;;;;5015491;28;20233;-78
2021/12/15 04:50:56;;;;;;;39.60;16.47;;;;;;;;;;5014562;28;20314;-78
2021/12/15 04:53:23;;;;;;;43.13;17.10;;;;;;;;;;5013171;28;20234;-78
2021/12/15 04:55:51;;;;;;;38.83;17.20;;;;;;;;;;5014497;28;20279;-77
2021/12/15 04:58:18;;;;;;;38.33;15.93;;;;;;;;;;5014607;28;20295;-78
2021/12/15 05:00:47;;;;;;;40.13;16.83;;;;;;;;;;5016719;28;20649;-78
2021/12/15 05:03:15;;;;;;;37.67;18.30;;;;;;;;;;5021906;28;20646;-77
2021/12/15 05:05:43;;;;;;;45.17;17.90;;;;;;;;;;5016288;28;20295;-77
2021/12/15 05:08:11;;;;;;;45.37;16.87;;;;;;;;;;5016761;28;20232;-77
2021/12/15 05:10:38;;;;;;;42.23;15.83;;;;;;;;;;5010873;28;20208;-76
2021/12/15 05:13:06;;;;;;;46.67;16.00;;;;;;;;;;5009069;28;20346;-77
2021/12/15 05:15:37;;;;;;;43.83;16.83;;;;;;;;;;5011151;28;20207;-78
2021/12/15 05:18:05;;;;;;;36.60;17.13;;;;;;;;;;5015306;28;20196;-77
2021/12/15 05:20:33;;;;;;;41.03;15.90;;;;;;;;;;5019311;28;20243;-77
2021/12/15 05:23:03;;;;;;;42.93;16.87;;;;;;;;;;5020206;28;20208;-78
2021/12/15 05:25:30;;;;;;;43.80;18.00;;;;;;;;;;5022880;28;20678;-77
2021/12/15 05:27:58;;;;;;;42.80;17.53;;;;;;;;;;5017674;28;20228;-77
2021/12/15 05:30:25;;;;;;;40.60;16.93;;;;;;;;;;5020725;28;20306;-78
2021/12/15 05:32:52;;;;;;;39.17;15.87;;;;;;;;;;5015761;28;20707;-78
2021/12/15 05:35:23;;;;;;;42.40;17.53;;;;;;;;;;5012530;28;20265;-77
2021/12/15 05:37:51;;;;;;;45.67;18.50;;;;;;;;;;5016067;28;20204;-78
2021/12/15 05:40:20;;;;;;;47.23;18.60;;;;;;;;;;5015151;28;20222;-78
2021/12/15 05:42:47;;;;;;;42.43;17.47;;;;;;;;;;5014222;28;20780;-79
2021/12/15 05:45:14;;;;;;;47.87;18.53;;;;;;;;;;5015816;28;20204;-78
2021/12/15 05:47:42;;;;;;;40.40;18.13;;;;;;;;;;5014653;28;20220;-78
2021/12/15 05:50:14;;;;;;;47.63;19.27;;;;;;;;;;5013673;28;20224;-79
2021/12/15 05:52:41;;;;;;;50.87;20.30;;;;;;;;;;5008737;28;20251;-79
2021/12/15 05:55:10;;;;;;;42.70;17.83;;;;;;;;;;5021497;28;20563;-80
2021/12/15 05:57:38;;;;;;;44.63;17.87;;;;;;;;;;5017386;28;20211;-79
2021/12/15 06:00:07;;;;;;;43.90;18.63;;;;;;;;;;5017466;28;20287;-79
2021/12/15 06:02:34;;;;;;;45.03;18.67;;;;;;;;;;5015323;28;20285;-80
2021/12/15 06:05:02;;;;;;;47.07;18.07;;;;;;;;;;5018508;28;20255;-79
2021/12/15 06:07:29;;;;;;;44.80;18.50;;;;;;;;;;5011195;28;20216;-80
2021/12/15 06:09:56;;;;;;;43.37;17.47;;;;;;;;;;5010710;28;20642;-79
2021/12/15 06:12:23;;;;;;;41.20;17.90;;;;;;;;;;5011520;28;20296;-80
2021/12/15 06:14:52;;;;;;;42.30;18.57;;;;;;;;;;5012438;28;20302;-80
2021/12/15 06:17:25;;;;;;;50.47;19.67;;;;;;;;;;5014263;28;20208;-79
2021/12/15 06:19:52;;;;;;;45.03;19.20;;;;;;;;;;5007249;28;20243;-80
2021/12/15 06:22:24;;;;;;;42.87;17.80;;;;;;;;;;5018626;28;20726;-79
2021/12/15 06:24:51;;;;;;;42.63;18.87;;;;;;;;;;5014490;28;20200;-78
2021/12/15 06:27:20;;;;;;;48.37;19.00;;;;;;;;;;5021278;28;21334;-78
2021/12/15 06:29:48;;;;;;;50.27;20.33;;;;;;;;;;5019633;28;20579;-79
2021/12/15 06:32:17;;;;;;;44.47;18.70;;;;;;;;;;5018324;28;20290;-78
2021/12/15 06:34:46;;;;;;;45.77;18.10;;;;;;;;;;5053347;22;20253;-85
2021/12/15 06:37:14;;;;;;;43.23;19.37;;;;;;;;;;5055418;28;20210;-83
2021/12/15 06:39:42;;;;;;;39.03;18.07;;;;;;;;;;5056270;28;20238;-84
2021/12/15 06:42:09;;;;;;;44.17;18.23;;;;;;;;;;5049832;28;20204;-82
2021/12/15 06:44:40;;;;;;;43.63;18.77;;;;;;;;;;5045715;28;20240;-82
2021/12/15 06:58:23;;;;;;;39.33;17.03;;;;;;;;;;5056149;28;20341;-83
2021/12/15 07:00:53;;;;;;;40.60;17.80;;;;;;;;;;5040291;28;20691;-83
2021/12/15 07:03:24;;;;;;;44.40;17.83;;;;;;;;;;5034719;28;20203;-84
2021/12/15 07:05:55;;;;;;;43.27;17.00;;;;;;;;;;5036864;28;20224;-83
2021/12/15 07:08:22;;;;;;;46.70;18.20;;;;;;;;;;5036257;28;20215;-83
2021/12/15 07:10:51;;;;;;;47.23;19.73;;;;;;;;;;5040113;28;20654;-83
2021/12/15 07:13:20;;;;;;;43.53;18.00;;;;;;;;;;5039410;28;20243;-82
2021/12/15 07:15:49;;;;;;;46.70;18.23;;;;;;;;;;5038123;28;20769;-82
2021/12/15 07:18:26;;;;;;;42.87;17.33;;;;;;;;;;5042766;28;20347;-82
2021/12/15 07:21:04;;;;;;;48.10;18.33;;;;;;;;;;5045996;28;20217;-83
2021/12/15 07:23:32;;;;;;;47.20;17.27;;;;;;;;;;5035338;28;20206;-83
2021/12/15 07:26:02;;;;;;;41.17;17.00;;;;;;;;;;5045302;28;20258;-85
2021/12/15 07:28:29;;;;;;;37.43;16.90;;;;;;;;;;5034803;28;20216;-83
2021/12/15 07:30:57;;;;;;;43.97;17.83;;;;;;;;;;5040852;28;20267;-83
2021/12/15 07:33:24;;;;;;;42.33;16.80;;;;;;;;;;5038810;28;20496;-82
2021/12/15 07:35:52;;;;;;;40.93;17.47;;;;;;;;;;5037039;28;20258;-83
2021/12/15 07:38:20;;;;;;;48.77;16.63;;;;;;;;;;5039806;28;20207;-84
2021/12/15 07:40:48;;;;;;;44.37;17.77;;;;;;;;;;5036456;28;20241;-83
2021/12/15 07:43:23;;;;;;;43.17;17.17;;;;;;;;;;5040692;28;20227;-84
2021/12/15 07:45:52;;;;;;;43.43;18.20;;;;;;;;;;5044252;28;20294;-82
2021/12/15 07:48:20;;;;;;;44.00;18.20;;;;;;;;;;5039154;28;20203;-82
2021/12/15 07:50:51;;;;;;;43.70;18.43;;;;;;;;;;5040965;28;20638;-83
2021/12/15 07:53:19;;;;;;;48.10;18.27;;;;;;;;;;5034669;28;20714;-83
2021/12/15 07:55:48;;;;;;;42.90;17.20;;;;;;;;;;5042317;28;20234;-83
2021/12/15 07:58:18;;;;;;;42.90;17.97;;;;;;;;;;5039268;28;20219;-82
2021/12/15 08:00:45;;;;;;;46.03;17.47;;;;;;;;;;5042569;28;20227;-84
2021/12/15 08:03:13;;;;;;;45.20;18.67;;;;;;;;;;5039902;28;20204;-83
2021/12/15 08:05:41;;;;;;;43.43;17.60;;;;;;;;;;5041791;28;20773;-83
2021/12/15 08:08:09;;;;;;;45.20;18.27;;;;;;;;;;5021599;28;20322;-85
2021/12/15 08:10:37;;;;;;;46.10;18.30;;;;;;;;;;5042452;28;20294;-84
2021/12/15 08:13:05;;;;;;;41.00;17.43;;;;;;;;;;5044640;28;20310;-85
2021/12/15 08:15:33;;;;;;;45.03;18.13;;;;;;;;;;5021191;28;20341;-83
2021/12/15 08:18:00;;;;;;;42.13;17.70;;;;;;;;;;5041129;28;20218;-83
2021/12/15 08:20:29;;;;;;;40.90;17.97;;;;;;;;;;5042981;28;20572;-83
2021/12/15 08:22:57;;;;;;;47.50;19.17;;;;;;;;;;5040852;28;20243;-84
2021/12/15 08:25:24;;;;;;;44.40;18.23;;;;;;;;;;5049121;28;20310;-82
2021/12/15 08:27:52;;;;;;;47.23;19.03;;;;;;;;;;5048706;28;20211;-84
2021/12/15 08:30:23;;;;;;;45.97;17.40;;;;;;;;;;5043021;28;20260;-83
2021/12/15 08:32:52;;;;;;;45.90;18.50;;;;;;;;;;5042613;28;20315;-83
2021/12/15 08:35:21;;;;;;;42.17;18.73;;;;;;;;;;5038032;28;20231;-84
2021/12/15 08:37:49;;;;;;;41.43;17.13;;;;;;;;;;5039635;28;20205;-84
2021/12/15 08:40:17;;;;;;;36.83;16.77;;;;;;;;;;5050357;28;20210;-83
2021/12/15 08:42:45;;;;;;;36.93;16.37;;;;;;;;;;5043895;28;20294;-84
2021/12/15 08:45:13;;;;;;;40.73;17.47;;;;;;;;;;5042211;28;20224;-83
2021/12/15 08:47:43;;;;;;;43.40;17.93;;;;;;;;;;5042978;28;20282;-84
2021/12/15 08:50:14;;;;;;;48.67;17.40;;;;;;;;;;5037139;28;20599;-83
2021/12/15 08:52:43;;;;;;;38.80;17.43;;;;;;;;;;5039978;28;20310;-84
2021/12/15 08:55:11;;;;;;;38.10;16.80;;;;;;;;;;5041477;28;20239;-83
2021/12/15 08:57:46;;;;;;;43.40;17.70;;;;;;;;;;5040060;28;20215;-84
2021/12/15 09:00:14;;;;;;;41.87;17.27;;;;;;;;;;5041537;28;20261;-84
2021/12/15 09:02:47;;;;;;;43.80;18.10;;;;;;;;;;5039596;28;20214;-83
2021/12/15 09:05:20;;;;;;;38.67;17.40;;;;;;;;;;5041544;28;20281;-84
2021/12/15 09:07:48;;;;;;;44.33;17.97;;;;;;;;;;5037383;28;20217;-82
2021/12/15 09:10:15;;;;;;;34.80;16.30;;;;;;;;;;5044088;28;20211;-83
2021/12/15 09:12:42;;;;;;;38.03;15.73;;;;;;;;;;5041399;28;20235;-83
2021/12/15 09:15:10;;;;;;;34.57;16.20;;;;;;;;;;5042071;28;20270;-83
2021/12/15 09:17:37;;;;;;;40.07;15.27;;;;;;;;;;5042042;28;20246;-85
2021/12/15 09:20:07;;;;;;;33.93;15.30;;;;;;;;;;5039646;28;20238;-84
2021/12/15 09:22:35;;;;;;;38.83;16.73;;;;;;;;;;5038605;28;20199;-85
2021/12/15 09:25:03;;;;;;;35.63;16.77;;;;;;;;;;5042543;28;20224;-85
2021/12/15 09:27:30;;;;;;;32.57;15.57;;;;;;;;;;5040687;28;20721;-84
2021/12/15 09:29:57;;;;;;;34.57;15.63;;;;;;;;;;5043961;28;20261;-84
2021/12/15 09:32:24;;;;;;;35.77;15.17;;;;;;;;;;5039193;28;20640;-85
2021/12/15 09:34:53;;;;;;;34.67;14.57;;;;;;;;;;5041098;28;20239;-83
2021/12/15 09:37:22;;;;;;;36.80;14.87;;;;;;;;;;5038341;28;20218;-85
2021/12/15 09:39:49;;;;;;;36.23;15.67;;;;;;;;;;5048161;28;20650;-85
2021/12/15 09:42:20;;;;;;;34.53;15.57;;;;;;;;;;5038800;28;20218;-83
2021/12/15 09:44:51;;;;;;;32.23;14.33;;;;;;;;;;5051156;28;20298;-81
2021/12/15 09:47:39;;;;;;;32.27;13.90;;;;;;;;;;5052224;28;20203;-84
2021/12/15 10:04:16;;;;;;;28.80;13.93;;;;;;;;;;5041978;28;20290;-83
2021/12/15 10:07:04;;;;;;;29.13;13.17;;;;;;;;;;5039207;28;20200;-82
2021/12/15 10:12:34;;;;;;;28.10;11.83;;;;;;;;;;5034103;28;20214;-83
2021/12/15 10:17:59;;;;;;;26.70;10.23;;;;;;;;;;5035066;28;20206;-82
2021/12/15 10:20:28;;;;;;;19.77;9.83;;;;;;;;;;5034669;28;20294;-84
2021/12/15 10:23:00;;;;;;;18.93;8.70;;;;;;;;;;5038162;28;20207;-84
2021/12/15 10:25:30;;;;;;;26.27;10.43;;;;;;;;;;5038858;28;20308;-83
2021/12/15 10:28:01;;;;;;;18.23;8.30;;;;;;;;;;5035934;28;20214;-84
2021/12/15 10:30:31;;;;;;;24.73;11.27;;;;;;;;;;5037069;28;20239;-82
2021/12/15 10:33:00;;;;;;;23.10;11.33;;;;;;;;;;5033299;28;20595;-81
2021/12/15 10:35:29;;;;;;;21.60;10.00;;;;;;;;;;5037980;28;20231;-83
2021/12/15 10:38:20;;;;;;;20.03;9.60;;;;;;;;;;5040142;28;20214;-83
2021/12/15 10:40:50;;;;;;;18.90;8.00;;;;;;;;;;5042720;28;20305;-84
2021/12/15 10:43:18;;;;;;;15.67;7.90;;;;;;;;;;5040374;28;20281;-83
2021/12/15 10:45:47;;;;;;;15.30;6.87;;;;;;;;;;5038571;28;20288;-83
2021/12/15 10:48:24;;;;;;;12.20;6.43;;;;;;;;;;5041747;28;20215;-82
2021/12/15 10:50:51;;;;;;;14.20;5.37;;;;;;;;;;5038244;28;20203;-85
2021/12/15 10:53:30;;;;;;;10.97;5.87;;;;;;;;;;5017361;28;20294;-82
2021/12/15 10:55:59;;;;;;;12.97;6.07;;;;;;;;;;5031160;28;20239;-82
2021/12/15 10:58:33;;;;;;;12.67;5.87;;;;;;;;;;5015859;28;255399;-82
2021/12/15 11:01:01;;;;;;;11.57;5.93;;;;;;;;;;5008520;28;21865;-82
2021/12/15 11:03:33;;;;;;;13.33;7.40;;;;;;;;;;5012127;28;20303;-84
2021/12/15 11:06:01;;;;;;;12.30;6.43;;;;;;;;;;5022287;28;20723;-83
2021/12/15 11:08:33;;;;;;;10.97;5.90;;;;;;;;;;5021925;28;20247;-84
2021/12/15 11:11:01;;;;;;;12.67;6.47;;;;;;;;;;5019322;28;20752;-84
2021/12/15 11:13:31;;;;;;;12.37;6.40;;;;;;;;;;5024199;28;20223;-85
2021/12/15 11:15:58;;;;;;;15.23;6.87;;;;;;;;;;5023472;28;20244;-83
2021/12/15 11:18:28;;;;;;;11.63;5.67;;;;;;;;;;5022737;28;20234;-82
2021/12/15 11:20:57;;;;;;;11.37;6.37;;;;;;;;;;5021461;28;20223;-84
2021/12/15 11:23:25;;;;;;;12.43;6.00;;;;;;;;;;5020842;28;20310;-83
2021/12/15 11:25:53;;;;;;;13.97;6.20;;;;;;;;;;5022451;28;20307;-85
2021/12/15 11:28:23;;;;;;;15.17;6.77;;;;;;;;;;5024687;28;20294;-81
2021/12/15 11:30:53;;;;;;;12.83;5.70;;;;;;;;;;5021643;28;20215;-84
2021/12/15 11:33:22;;;;;;;13.53;6.87;;;;;;;;;;5021385;28;20290;-82
2021/12/15 11:35:52;;;;;;;14.00;7.33;;;;;;;;;;5023223;28;20255;-83
2021/12/15 11:38:22;;;;;;;12.07;6.57;;;;;;;;;;5030937;28;21121;-83
2021/12/15 11:40:52;;;;;;;12.03;6.23;;;;;;;;;;5026633;28;20212;-85
2021/12/15 11:43:34;;;;;;;12.77;5.97;;;;;;;;;;5023599;28;20254;-85
2021/12/15 11:46:03;;;;;;;12.83;6.50;;;;;;;;;;5023455;28;20220;-82
2021/12/15 11:48:33;;;;;;;11.97;6.40;;;;;;;;;;5026486;28;20744;-83
2021/12/15 11:51:04;;;;;;;11.67;5.33;;;;;;;;;;5028989;28;20207;-85
2021/12/15 11:53:43;;;;;;;8.17;4.60;;;;;;;;;;5024222;28;20211;-83
2021/12/15 11:56:15;;;;;;;9.73;5.60;;;;;;;;;;5030516;28;20236;-84
2021/12/15 11:58:44;;;;;;;12.33;5.80;;;;;;;;;;5026511;28;20212;-84
2021/12/15 12:01:11;;;;;;;7.97;4.13;;;;;;;;;;5030190;28;20231;-83
2021/12/15 12:03:38;;;;;;;10.03;4.70;;;;;;;;;;5025742;28;20307;-82
2021/12/15 12:06:06;;;;;;;15.50;5.20;;;;;;;;;;5030189;28;20255;-85
2021/12/15 12:08:33;;;;;;;14.57;4.87;;;;;;;;;;5028406;28;20239;-83
2021/12/15 12:11:14;;;;;;;8.17;3.80;;;;;;;;;;5027624;28;20258;-82
2021/12/15 12:13:49;;;;;;;12.17;5.97;;;;;;;;;;5025830;28;20224;-84
2021/12/15 12:16:22;;;;;;;5.77;3.20;;;;;;;;;;5024396;28;20322;-84
2021/12/15 12:18:51;;;;;;;9.53;4.40;;;;;;;;;;5027054;28;20731;-84
2021/12/15 12:21:18;;;;;;;21.70;8.20;;;;;;;;;;5027329;28;20223;-84
2021/12/15 12:23:49;;;;;;;8.03;2.93;;;;;;;;;;5022449;28;20200;-84
2021/12/15 12:26:16;;;;;;;2.80;1.70;;;;;;;;;;5024151;28;20236;-83
2021/12/15 12:28:47;;;;;;;19.33;10.97;;;;;;;;;;5025737;28;20215;-85
2021/12/15 12:31:16;;;;;;;21.43;9.70;;;;;;;;;;5023324;28;20714;-85
2021/12/15 12:33:45;;;;;;;12.63;4.23;;;;;;;;;;5038380;28;20236;-82
2021/12/15 12:36:14;;;;;;;20.43;8.87;;;;;;;;;;5034878;28;20270;-82
2021/12/15 12:38:44;;;;;;;15.30;5.43;;;;;;;;;;5027254;28;20203;-84
2021/12/15 12:41:13;;;;;;;43.03;15.03;;;;;;;;;;5023076;28;20633;-83
2021/12/15 12:43:42;;;;;;;19.23;7.60;;;;;;;;;;5026378;28;20216;-83
2021/12/15 12:46:16;;;;;;;5.43;2.50;;;;;;;;;;5026623;28;20646;-84
2021/12/15 12:49:18;;;;;;;3.00;1.43;;;;;;;;;;5026691;28;20207;-82
2021/12/15 13:00:32;;;;;;;1.63;1.20;;;;;;;;;;5022405;28;20570;-84
2021/12/15 13:03:01;;;;;;;9.90;5.23;;;;;;;;;;5020592;28;20216;-82
2021/12/15 13:05:38;;;;;;;4.37;2.80;;;;;;;;;;5026076;28;20274;-83
2021/12/15 13:08:07;;;;;;;3.90;2.13;;;;;;;;;;5024543;28;20212;-84
2021/12/15 13:10:51;;;;;;;2.90;1.90;;;;;;;;;;5024414;28;20731;-84
2021/12/15 13:13:20;;;;;;;4.40;2.97;;;;;;;;;;5020802;28;20216;-85
2021/12/15 13:15:52;;;;;;;5.77;2.57;;;;;;;;;;5020018;28;20240;-83
2021/12/15 13:18:19;;;;;;;2.83;1.00;;;;;;;;;;5020227;28;20204;-84
2021/12/15 13:20:55;;;;;;;2.93;1.77;;;;;;;;;;5022102;28;20207;-83
2021/12/15 13:23:38;;;;;;;3.07;1.80;;;;;;;;;;5024720;28;20243;-84
2021/12/15 13:28:51;;;;;;;3.90;1.77;;;;;;;;;;5022474;28;20310;-83
2021/12/15 13:31:21;;;;;;;1.97;1.17;;;;;;;;;;5020400;28;20207;-83
2021/12/15 13:33:50;;;;;;;3.93;1.77;;;;;;;;;;5028541;28;20228;-83
2021/12/15 13:36:20;;;;;;;3.53;1.60;;;;;;;;;;5025252;28;20260;-85
2021/12/15 13:38:49;;;;;;;2.70;1.80;;;;;;;;;;5025964;28;20201;-84
2021/12/15 13:41:24;;;;;;;9.03;4.90;;;;;;;;;;5021574;28;20212;-83
2021/12/15 13:43:53;;;;;;;5.10;3.13;;;;;;;;;;5024704;28;20208;-84
2021/12/15 13:46:36;;;;;;;22.50;14.03;;;;;;;;;;5020624;28;20712;-84
2021/12/15 13:49:06;;;;;;;8.23;4.63;;;;;;;;;;5023029;28;20571;-83
2021/12/15 13:51:51;;;;;;;5.57;2.83;;;;;;;;;;5022435;28;20204;-84
2021/12/15 13:54:24;;;;;;;5.73;2.33;;;;;;;;;;5026667;28;20239;-84
2021/12/15 13:56:52;;;;;;;3.40;2.40;;;;;;;;;;5028260;28;20228;-84
2021/12/15 13:59:30;;;;;;;9.03;5.83;;;;;;;;;;5022948;28;20243;-84
2021/12/15 14:02:12;;;;;;;8.20;5.97;;;;;;;;;;5023122;28;20242;-84
2021/12/15 14:04:45;;;;;;;3.00;2.20;;;;;;;;;;5025033;28;21181;-84
2021/12/15 14:07:30;;;;;;;5.03;3.67;;;;;;;;;;5022334;28;20201;-85
2021/12/15 14:10:00;;;;;;;3.03;1.80;;;;;;;;;;5015114;28;20266;-83
2021/12/15 14:12:52;;;;;;;2.43;1.57;;;;;;;;;;5020415;28;20227;-84
2021/12/15 14:15:34;;;;;;;2.20;1.30;;;;;;;;;;5013790;28;20239;-83
2021/12/15 14:18:02;;;;;;;1.90;0.90;;;;;;;;;;5019317;28;20219;-84
2021/12/15 14:20:30;;;;;;;4.07;1.90;;;;;;;;;;5024100;28;20303;-85
2021/12/15 14:22:58;;;;;;;3.43;1.20;;;;;;;;;;5024296;28;20214;-85
2021/12/15 14:25:26;;;;;;;4.83;2.03;;;;;;;;;;5024799;28;20647;-84
2021/12/15 14:27:54;;;;;;;7.87;4.27;;;;;;;;;;5023606;28;20209;-83
2021/12/15 14:30:21;;;;;;;10.80;5.60;;;;;;;;;;5022877;28;20283;-84
2021/12/15 14:32:48;;;;;;;6.23;3.73;;;;;;;;;;5024309;28;20292;-84
2021/12/15 14:35:18;;;;;;;5.50;3.07;;;;;;;;;;5023868;28;20232;-84
2021/12/15 14:37:45;;;;;;;3.73;2.17;;;;;;;;;;5023080;28;20208;-85
2021/12/15 14:40:13;;;;;;;9.03;4.93;;;;;;;;;;5022599;28;20232;-83
2021/12/15 14:42:42;;;;;;;22.27;10.57;;;;;;;;;;5026474;28;20664;-85
2021/12/15 14:45:11;;;;;;;9.33;4.80;;;;;;;;;;5027523;28;20287;-85
2021/12/15 14:47:39;;;;;;;5.13;3.07;;;;;;;;;;5021831;28;20266;-85
2021/12/15 14:50:10;;;;;;;3.37;1.97;;;;;;;;;;5023425;28;20243;-83
2021/12/15 14:52:39;;;;;;;3.80;1.93;;;;;;;;;;5026604;28;20212;-85
2021/12/15 14:55:08;;;;;;;3.80;2.40;;;;;;;;;;5025971;28;20318;-84
2021/12/15 14:57:36;;;;;;;6.13;2.87;;;;;;;;;;5031587;28;20719;-85
2021/12/15 15:00:07;;;;;;;8.57;3.77;;;;;;;;;;5024802;28;20234;-84
2021/12/15 15:02:37;;;;;;;8.87;3.97;;;;;;;;;;5026005;28;20313;-84
2021/12/15 15:05:06;;;;;;;8.40;3.70;;;;;;;;;;5030827;28;20302;-83
2021/12/15 15:07:34;;;;;;;7.20;3.27;;;;;;;;;;5022143;28;20204;-83
2021/12/15 15:10:02;;;;;;;7.53;3.67;;;;;;;;;;5026829;28;20212;-85
2021/12/15 15:12:31;;;;;;;6.27;3.10;;;;;;;;;;5028029;28;20204;-82
2021/12/15 15:15:00;;;;;;;3.77;2.03;;;;;;;;;;5025640;28;20246;-84
2021/12/15 15:17:34;;;;;;;2.93;1.30;;;;;;;;;;5023241;28;20283;-85
2021/12/15 15:20:02;;;;;;;2.97;1.30;;;;;;;;;;5036751;28;20207;-81
2021/12/15 15:22:32;;;;;;;3.10;1.73;;;;;;;;;;5027477;28;20232;-83
2021/12/15 15:25:00;;;;;;;4.23;2.53;;;;;;;;;;5025361;28;20276;-85
2021/12/15 15:27:27;;;;;;;10.17;5.33;;;;;;;;;;5021805;28;20220;-85
2021/12/15 15:29:56;;;;;;;9.27;4.97;;;;;;;;;;5022795;28;20234;-85
2021/12/15 15:32:25;;;;;;;8.33;3.67;;;;;;;;;;5023673;28;20234;-84
2021/12/15 15:34:56;;;;;;;16.97;9.50;;;;;;;;;;5020329;28;20259;-85
2021/12/15 15:37:26;;;;;;;4.80;3.13;;;;;;;;;;5022499;28;20224;-83
2021/12/15 15:40:23;;;;;;;12.80;5.63;;;;;;;;;;5023845;28;20258;-85
2021/12/15 15:42:54;;;;;;;8.23;4.13;;;;;;;;;;4974365;28;20361;-84
2021/12/15 15:45:26;;;;;;;10.67;5.40;;;;;;;;;;5012770;28;20240;-83
2021/12/15 15:47:53;;;;;;;9.07;3.50;;;;;;;;;;5023044;28;20644;-82